Time;durP1;ratioP1;P1;durP2;ratioP2;P2;SDS_P1;SDS_P2;PMS_P1;PMS_P2;Temp;Humidity;BMP_temperature;BMP_pressure;BME280_temperature;BME280_humidity;BME280_pressure;Samples;Min_cycle;Max_cycle;Signal;HPM_P1;HPM_P2
2020/12/29 00:00:25;;;;;;;0.00;0.00;;;5.80;87.00;;;;;;5038803;28;20048;-87
2020/12/29 00:02:52;;;;;;;1.50;0.10;;;5.80;87.00;;;;;;5024410;28;20052;-88
2020/12/29 00:05:18;;;;;;;0.00;0.00;;;5.80;87.00;;;;;;5041955;28;20033;-88
2020/12/29 00:07:53;;;;;;;1.70;0.53;;;5.70;87.00;;;;;;5041617;28;20025;-87
2020/12/29 00:10:23;;;;;;;0.80;0.53;;;5.70;87.10;;;;;;5042785;28;20036;-87
2020/12/29 00:12:50;;;;;;;0.00;0.00;;;5.70;87.20;;;;;;5040469;28;20029;-87
2020/12/29 00:15:16;;;;;;;0.30;0.10;;;5.60;87.20;;;;;;5023259;28;20461;-87
2020/12/29 00:17:42;;;;;;;0.00;0.00;;;5.60;87.30;;;;;;5038785;28;20021;-89
2020/12/29 00:20:09;;;;;;;1.03;0.47;;;5.60;87.40;;;;;;5040855;28;20045;-90
2020/12/29 00:22:36;;;;;;;0.10;0.00;;;5.60;87.40;;;;;;5036254;28;20024;-87
2020/12/29 00:25:03;;;;;;;0.00;0.00;;;5.50;87.30;;;;;;5037116;28;20048;-86
2020/12/29 00:27:30;;;;;;;2.00;0.43;;;5.50;87.30;;;;;;5018629;28;20044;-88
2020/12/29 00:29:56;;;;;;;0.30;0.10;;;5.50;87.30;;;;;;5036396;28;20045;-86
2020/12/29 00:32:22;;;;;;;0.00;0.00;;;5.50;87.30;;;;;;5043472;28;20043;-86
2020/12/29 00:34:49;;;;;;;0.00;0.00;;;5.40;87.30;;;;;;5046340;28;20426;-91
2020/12/29 00:37:15;;;;;;;0.67;0.10;;;5.50;87.40;;;;;;5048100;28;20051;-94
2020/12/29 00:39:42;;;;;;;0.00;0.00;;;5.40;87.30;;;;;;5022266;28;20454;-86
2020/12/29 00:42:08;;;;;;;0.10;0.00;;;5.50;87.30;;;;;;5039478;28;20036;-87
2020/12/29 00:44:35;;;;;;;9.23;0.30;;;5.50;87.30;;;;;;5048821;28;20033;-86
2020/12/29 00:47:01;;;;;;;0.00;0.00;;;5.50;87.30;;;;;;5039029;28;20036;-86
2020/12/29 00:49:28;;;;;;;0.00;0.00;;;5.50;87.30;;;;;;5043289;28;20438;-87
2020/12/29 00:51:54;;;;;;;0.00;0.00;;;5.40;87.20;;;;;;5055351;28;20433;-86
2020/12/29 00:54:21;;;;;;;0.27;0.00;;;5.40;87.20;;;;;;5036981;28;20418;-86
2020/12/29 00:56:47;;;;;;;0.00;0.00;;;5.40;87.20;;;;;;5040235;28;20036;-86
2020/12/29 00:59:14;;;;;;;0.23;0.10;;;5.40;87.30;;;;;;5032866;28;20332;-86
2020/12/29 01:01:40;;;;;;;0.10;0.10;;;5.40;87.30;;;;;;5053850;28;20161;-86
2020/12/29 01:04:06;;;;;;;2.57;0.10;;;5.40;87.40;;;;;;5054487;28;20045;-86
2020/12/29 01:06:33;;;;;;;0.00;0.00;;;5.40;87.40;;;;;;5037182;28;20446;-86
2020/12/29 01:08:59;;;;;;;0.00;0.00;;;5.30;87.30;;;;;;5036839;28;20411;-85
2020/12/29 01:11:25;;;;;;;2.27;0.47;;;5.30;87.40;;;;;;5037082;28;20029;-86
2020/12/29 01:13:52;;;;;;;0.00;0.00;;;5.30;87.50;;;;;;5036788;28;20037;-86
2020/12/29 01:16:18;;;;;;;0.30;0.20;;;5.30;87.50;;;;;;5057032;28;20036;-87
2020/12/29 01:18:47;;;;;;;0.00;0.00;;;5.30;87.60;;;;;;5035956;28;20029;-86
2020/12/29 01:21:13;;;;;;;0.00;0.00;;;5.20;87.60;;;;;;5032160;28;20572;-85
2020/12/29 01:23:39;;;;;;;1.07;0.40;;;5.20;87.70;;;;;;5053573;28;20335;-89
2020/12/29 01:26:07;;;;;;;0.00;0.00;;;5.20;87.70;;;;;;5054146;28;20331;-89
2020/12/29 01:28:35;;;;;;;0.00;0.00;;;5.20;87.70;;;;;;5054173;28;20025;-87
2020/12/29 01:31:01;;;;;;;0.07;0.00;;;5.20;87.80;;;;;;5036238;28;20494;-86
2020/12/29 01:33:28;;;;;;;0.00;0.00;;;5.20;87.80;;;;;;5036551;28;20095;-86
2020/12/29 01:35:54;;;;;;;0.10;0.10;;;5.20;87.90;;;;;;5051330;28;20033;-85
2020/12/29 01:38:20;;;;;;;0.00;0.00;;;5.10;87.80;;;;;;5024446;28;20036;-86
2020/12/29 01:40:47;;;;;;;0.00;0.00;;;5.10;87.80;;;;;;5021845;28;20044;-86
2020/12/29 01:43:13;;;;;;;0.30;0.00;;;5.10;87.80;;;;;;5036719;28;20025;-86
2020/12/29 01:45:39;;;;;;;0.00;0.00;;;5.10;87.80;;;;;;5031556;28;20036;-87
2020/12/29 01:48:06;;;;;;;0.00;0.00;;;5.10;87.80;;;;;;5017388;28;20438;-86
2020/12/29 01:50:32;;;;;;;0.00;0.00;;;5.10;87.70;;;;;;5035460;28;20041;-87
2020/12/29 01:53:00;;;;;;;0.20;0.20;;;5.10;87.70;;;;;;5036420;28;20411;-88
2020/12/29 01:55:27;;;;;;;0.00;0.00;;;5.10;87.70;;;;;;5052384;28;20041;-86
2020/12/29 01:57:54;;;;;;;0.00;0.00;;;5.10;87.70;;;;;;5036990;28;20060;-89
2020/12/29 02:00:20;;;;;;;0.00;0.00;;;5.10;87.70;;;;;;5035049;28;20045;-86
2020/12/29 02:02:46;;;;;;;0.00;0.00;;;5.10;87.70;;;;;;5036820;28;20033;-87
2020/12/29 02:05:13;;;;;;;0.00;0.00;;;5.10;87.70;;;;;;5036599;28;20033;-86
2020/12/29 02:07:39;;;;;;;0.00;0.00;;;5.20;87.80;;;;;;5032540;28;20029;-90
2020/12/29 02:10:06;;;;;;;0.10;0.00;;;5.10;87.60;;;;;;5036081;28;20407;-86
2020/12/29 02:12:34;;;;;;;0.10;0.00;;;5.10;87.60;;;;;;5028500;28;20518;-87
2020/12/29 02:15:01;;;;;;;0.60;0.10;;;5.10;87.50;;;;;;5028474;28;20037;-87
2020/12/29 02:17:27;;;;;;;0.37;0.20;;;5.10;87.50;;;;;;5037783;28;20327;-92
2020/12/29 02:19:53;;;;;;;0.40;0.40;;;5.20;87.60;;;;;;5037676;28;20036;-85
2020/12/29 02:22:21;;;;;;;0.10;0.10;;;5.20;87.50;;;;;;5035864;28;20037;-85
2020/12/29 02:24:58;;;;;;;0.00;0.00;;;5.20;87.50;;;;;;5035459;28;20045;-87
2020/12/29 02:27:25;;;;;;;0.00;0.00;;;5.20;87.50;;;;;;5035623;28;20029;-87
2020/12/29 02:29:52;;;;;;;0.00;0.00;;;5.20;87.50;;;;;;5035862;28;20025;-91
2020/12/29 02:32:22;;;;;;;0.00;0.00;;;5.20;87.50;;;;;;5053329;28;20435;-91
2020/12/29 02:34:48;;;;;;;1.63;0.40;;;5.20;87.60;;;;;;5036468;28;20044;-93
2020/12/29 02:37:15;;;;;;;0.40;0.00;;;5.20;87.50;;;;;;5037619;28;20029;-89
2020/12/29 02:39:42;;;;;;;0.00;0.00;;;5.10;87.50;;;;;;5037710;28;20519;-93
2020/12/29 02:42:09;;;;;;;0.03;0.00;;;5.10;87.50;;;;;;5037128;28;20037;-93
2020/12/29 02:44:35;;;;;;;0.00;0.00;;;5.10;87.60;;;;;;5036322;28;20041;-88
2020/12/29 02:47:02;;;;;;;0.00;0.00;;;5.10;87.60;;;;;;5035826;28;20029;-86
2020/12/29 02:49:28;;;;;;;0.60;0.20;;;5.10;87.70;;;;;;5035766;28;20037;-87
2020/12/29 02:51:58;;;;;;;0.00;0.00;;;5.10;87.70;;;;;;5038451;28;20308;-87
2020/12/29 02:54:24;;;;;;;0.00;0.00;;;5.10;87.70;;;;;;5040865;28;20418;-88
2020/12/29 02:56:51;;;;;;;0.30;0.20;;;5.10;87.60;;;;;;5057902;28;20036;-87
2020/12/29 02:59:17;;;;;;;0.20;0.00;;;5.10;87.60;;;;;;5039475;28;20040;-85
2020/12/29 03:01:44;;;;;;;0.00;0.00;;;5.10;87.60;;;;;;5040125;28;20048;-87
2020/12/29 03:04:10;;;;;;;0.00;0.00;;;5.10;87.60;;;;;;5042372;28;20033;-93
2020/12/29 03:06:36;;;;;;;0.10;0.00;;;5.20;87.70;;;;;;5051986;28;20044;-86
2020/12/29 03:09:03;;;;;;;0.10;0.00;;;5.20;87.60;;;;;;5021100;28;20045;-87
2020/12/29 03:11:31;;;;;;;0.00;0.00;;;5.20;87.60;;;;;;5038329;28;20040;-87
2020/12/29 03:14:01;;;;;;;0.00;0.00;;;5.20;87.40;;;;;;5038031;28;20033;-86
2020/12/29 03:16:28;;;;;;;0.00;0.00;;;5.30;87.40;;;;;;5021394;28;20036;-87
2020/12/29 03:18:54;;;;;;;0.00;0.00;;;5.30;87.30;;;;;;5020417;28;20048;-87
2020/12/29 03:21:21;;;;;;;0.00;0.00;;;5.30;87.30;;;;;;5038002;28;20346;-86
2020/12/29 03:23:47;;;;;;;10.60;0.30;;;5.40;87.20;;;;;;5037900;28;20455;-86
2020/12/29 03:26:14;;;;;;;0.57;0.20;;;5.30;87.10;;;;;;5021856;28;20044;-86
2020/12/29 03:28:41;;;;;;;0.00;0.00;;;5.40;87.10;;;;;;5037010;28;20060;-86
2020/12/29 03:31:07;;;;;;;0.10;0.00;;;5.40;87.10;;;;;;5036711;28;20040;-86
2020/12/29 03:33:33;;;;;;;0.00;0.00;;;5.40;87.00;;;;;;5037732;28;20037;-86
2020/12/29 03:36:00;;;;;;;0.03;0.00;;;5.40;87.00;;;;;;5038562;28;20033;-87
2020/12/29 03:38:27;;;;;;;0.00;0.00;;;5.40;87.00;;;;;;5057187;28;20040;-90
2020/12/29 03:40:53;;;;;;;0.00;0.00;;;5.40;87.10;;;;;;5040823;28;20355;-87
2020/12/29 03:43:20;;;;;;;0.20;0.10;;;5.40;87.10;;;;;;5021928;28;20033;-90
2020/12/29 03:45:47;;;;;;;0.00;0.00;;;5.40;87.10;;;;;;5038626;28;20056;-85
2020/12/29 03:48:15;;;;;;;0.00;0.00;;;5.40;87.20;;;;;;5035062;28;20037;-86
2020/12/29 03:50:42;;;;;;;0.27;0.00;;;5.40;87.30;;;;;;5033634;28;20044;-86
2020/12/29 03:53:08;;;;;;;15.47;0.20;;;5.30;87.30;;;;;;5039387;28;20041;-87
2020/12/29 03:55:35;;;;;;;0.53;0.20;;;5.30;87.40;;;;;;5022522;28;20040;-85
2020/12/29 03:58:02;;;;;;;0.33;0.33;;;5.30;87.50;;;;;;5039044;28;20511;-87
2020/12/29 04:00:28;;;;;;;0.07;0.03;;;5.30;87.50;;;;;;5030330;28;20037;-86
2020/12/29 04:02:55;;;;;;;0.00;0.00;;;5.30;87.50;;;;;;5037590;28;20037;-87
2020/12/29 04:05:21;;;;;;;0.00;0.00;;;5.30;87.50;;;;;;5056189;28;20025;-88
2020/12/29 04:07:50;;;;;;;0.00;0.00;;;5.30;87.50;;;;;;5038521;28;20033;-88
2020/12/29 04:10:17;;;;;;;0.00;0.00;;;5.30;87.60;;;;;;5038802;28;20037;-86
2020/12/29 04:12:43;;;;;;;0.00;0.00;;;5.30;87.60;;;;;;5038980;28;20434;-87
2020/12/29 04:15:10;;;;;;;0.00;0.00;;;5.30;87.60;;;;;;5037578;28;20032;-86
2020/12/29 04:17:37;;;;;;;0.00;0.00;;;5.30;87.60;;;;;;5038173;28;20433;-87
2020/12/29 04:20:05;;;;;;;0.50;0.07;;;5.20;87.60;;;;;;5038328;28;20320;-87
2020/12/29 04:22:32;;;;;;;0.00;0.00;;;5.30;87.60;;;;;;5037980;28;20041;-86
2020/12/29 04:24:58;;;;;;;0.00;0.00;;;5.30;88.30;;;;;;5034895;28;20341;-86
2020/12/29 04:27:25;;;;;;;0.00;0.00;;;5.30;87.50;;;;;;5018177;28;20041;-88
2020/12/29 04:29:52;;;;;;;0.00;0.00;;;5.30;87.50;;;;;;5034909;28;20026;-86
2020/12/29 04:32:18;;;;;;;0.00;0.00;;;5.30;87.40;;;;;;5035048;28;20317;-86
2020/12/29 04:34:45;;;;;;;0.00;0.00;;;5.30;87.40;;;;;;5014253;28;20057;-86
2020/12/29 04:37:11;;;;;;;0.00;0.00;;;5.30;87.40;;;;;;5017707;28;20041;-86
2020/12/29 04:39:38;;;;;;;0.00;0.00;;;5.30;87.30;;;;;;5035219;28;20332;-86
2020/12/29 04:42:06;;;;;;;0.00;0.00;;;5.40;87.40;;;;;;5033874;28;20041;-86
2020/12/29 04:44:33;;;;;;;0.10;0.07;;;5.30;87.30;;;;;;5037664;28;20351;-86
2020/12/29 04:46:59;;;;;;;0.00;0.00;;;5.30;87.30;;;;;;5034116;28;20038;-86
2020/12/29 04:49:26;;;;;;;0.00;0.00;;;5.40;87.30;;;;;;5033979;28;20323;-86
2020/12/29 04:51:56;;;;;;;0.00;0.00;;;5.40;87.20;;;;;;5034939;28;20030;-85
2020/12/29 04:54:23;;;;;;;0.00;0.00;;;5.40;87.20;;;;;;5017521;28;20041;-85
2020/12/29 04:56:54;;;;;;;0.00;0.00;;;5.40;87.10;;;;;;5033190;28;20040;-85
2020/12/29 04:59:20;;;;;;;0.00;0.00;;;5.50;87.10;;;;;;5033042;28;20333;-85
2020/12/29 05:01:47;;;;;;;0.57;0.17;;;5.50;87.10;;;;;;5018640;28;20065;-85
2020/12/29 05:04:13;;;;;;;0.00;0.00;;;5.50;87.10;;;;;;5014805;28;20033;-91
2020/12/29 05:06:40;;;;;;;0.00;0.00;;;5.50;87.00;;;;;;5015460;28;20367;-89
2020/12/29 05:09:06;;;;;;;0.00;0.00;;;5.50;87.00;;;;;;5015405;28;20026;-86
2020/12/29 05:11:33;;;;;;;0.00;0.00;;;5.50;87.00;;;;;;5014579;28;20045;-86
2020/12/29 05:14:01;;;;;;;0.00;0.00;;;5.50;86.90;;;;;;4997256;28;20053;-86
2020/12/29 05:16:27;;;;;;;0.00;0.00;;;5.50;86.90;;;;;;5005186;28;20034;-90
2020/12/29 05:18:54;;;;;;;0.00;0.00;;;5.60;87.00;;;;;;5014180;28;20038;-87
2020/12/29 05:21:21;;;;;;;0.00;0.00;;;5.60;86.90;;;;;;5002086;28;20041;-87
2020/12/29 05:23:48;;;;;;;0.00;0.00;;;5.60;86.90;;;;;;5014308;28;20380;-90
2020/12/29 05:26:14;;;;;;;0.00;0.00;;;5.60;87.00;;;;;;5014893;28;20336;-87
2020/12/29 05:28:40;;;;;;;0.00;0.00;;;5.60;87.00;;;;;;5015513;28;20033;-88
2020/12/29 05:31:07;;;;;;;0.00;0.00;;;5.50;86.90;;;;;;5014297;28;20038;-85
2020/12/29 05:33:33;;;;;;;0.00;0.00;;;5.60;87.10;;;;;;5014967;28;20044;-89
2020/12/29 05:36:00;;;;;;;0.00;0.00;;;5.60;87.10;;;;;;5017524;28;20049;-91
2020/12/29 05:38:26;;;;;;;3.60;0.30;;;5.60;87.00;;;;;;5014846;28;20080;-87
2020/12/29 05:40:53;;;;;;;0.00;0.00;;;5.60;87.10;;;;;;5012130;28;20045;-86
2020/12/29 05:43:32;;;;;;;1.10;0.10;;;5.60;87.10;;;;;;5015360;28;20451;-89
2020/12/29 05:46:06;;;;;;;0.00;0.00;;;5.50;87.10;;;;;;5022988;28;20041;-93
2020/12/29 05:48:33;;;;;;;0.00;0.00;;;5.60;87.30;;;;;;5035373;28;20025;-93
2020/12/29 05:51:13;;;;;;;0.00;0.00;;;5.50;87.20;;;;;;5036451;28;20412;-93
2020/12/29 05:53:39;;;;;;;0.00;0.00;;;5.50;87.30;;;;;;5035954;28;20289;-90
2020/12/29 05:56:07;;;;;;;0.00;0.00;;;5.50;87.30;;;;;;5035185;28;20034;-88
2020/12/29 05:58:35;;;;;;;2.53;0.23;;;5.50;87.30;;;;;;5035170;28;20029;-89
2020/12/29 06:01:01;;;;;;;0.00;0.00;;;5.50;87.30;;;;;;5014866;28;20049;-92
2020/12/29 06:03:29;;;;;;;0.00;0.00;;;5.50;87.20;;;;;;5004115;28;20132;-91
2020/12/29 06:05:58;;;;;;;0.00;0.00;;;5.60;87.30;;;;;;5020689;28;20026;-89
2020/12/29 06:08:27;;;;;;;0.00;0.00;;;5.60;87.20;;;;;;5014123;28;20049;-91
2020/12/29 06:10:58;;;;;;;0.00;0.00;;;5.60;87.10;;;;;;5012592;28;20026;-89
2020/12/29 06:13:27;;;;;;;0.00;0.00;;;5.60;87.00;;;;;;5014424;28;20038;-92
2020/12/29 06:15:57;;;;;;;0.00;0.00;;;5.70;87.00;;;;;;5014340;28;20041;-91
2020/12/29 06:18:33;;;;;;;0.00;0.00;;;5.70;86.90;;;;;;5015714;28;20448;-89
2020/12/29 06:21:03;;;;;;;0.20;0.13;;;5.70;86.80;;;;;;5009561;28;20042;-88
2020/12/29 06:23:30;;;;;;;0.00;0.00;;;5.80;86.80;;;;;;5008327;28;20420;-91
2020/12/29 06:25:57;;;;;;;0.00;0.00;;;5.80;86.70;;;;;;5037685;28;20444;-88
2020/12/29 06:28:27;;;;;;;0.00;0.00;;;5.80;86.70;;;;;;5039920;28;20412;-88
2020/12/29 06:30:57;;;;;;;0.00;0.00;;;5.80;86.70;;;;;;5046181;28;20048;-88
2020/12/29 06:33:23;;;;;;;0.00;0.00;;;5.80;86.60;;;;;;5032803;28;20041;-87
2020/12/29 06:35:52;;;;;;;0.03;0.03;;;5.80;86.60;;;;;;5035783;28;20030;-87
2020/12/29 06:38:26;;;;;;;0.00;0.00;;;5.90;86.60;;;;;;5019217;28;20042;-86
2020/12/29 06:40:52;;;;;;;0.00;0.00;;;5.90;86.60;;;;;;5019601;28;20045;-87
2020/12/29 06:43:19;;;;;;;0.00;0.00;;;5.90;86.60;;;;;;5013866;28;20041;-88
2020/12/29 06:45:45;;;;;;;0.00;0.00;;;5.90;86.60;;;;;;4993545;28;20037;-88
2020/12/29 06:48:19;;;;;;;0.00;0.00;;;5.90;86.60;;;;;;5027796;28;20038;-87
2020/12/29 06:50:45;;;;;;;0.00;0.00;;;5.90;86.60;;;;;;5012202;28;20045;-87
2020/12/29 06:53:19;;;;;;;0.00;0.00;;;5.90;86.60;;;;;;5011619;28;20053;-88
2020/12/29 06:55:46;;;;;;;0.00;0.00;;;5.90;86.60;;;;;;4992745;28;20053;-87
2020/12/29 06:58:32;;;;;;;0.53;0.17;;;6.00;86.60;;;;;;5012268;28;20030;-93
2020/12/29 07:01:24;;;;;;;0.00;0.00;;;6.00;86.60;;;;;;5012468;28;20429;-93
2020/12/29 07:04:04;;;;;;;0.00;0.00;;;6.00;86.50;;;;;;5014324;28;20033;-92
2020/12/29 07:06:31;;;;;;;0.00;0.00;;;6.00;86.50;;;;;;4994383;28;20026;-91
2020/12/29 07:09:07;;;;;;;0.00;0.00;;;6.00;86.50;;;;;;4994072;28;20049;-89
2020/12/29 07:11:34;;;;;;;0.00;0.00;;;6.00;86.60;;;;;;4998233;28;20038;-90
2020/12/29 07:14:04;;;;;;;0.00;0.00;;;6.00;86.60;;;;;;5013560;28;20034;-90
2020/12/29 07:16:31;;;;;;;0.00;0.00;;;5.90;86.60;;;;;;5024236;28;20037;-88
2020/12/29 07:19:10;;;;;;;0.00;0.00;;;5.90;86.70;;;;;;5031992;28;20021;-89
2020/12/29 07:21:37;;;;;;;0.30;0.20;;;5.90;86.80;;;;;;5032836;28;20036;-89
2020/12/29 07:24:05;;;;;;;0.00;0.00;;;5.90;86.80;;;;;;5012135;28;20037;-89
2020/12/29 07:26:39;;;;;;;0.00;0.00;;;5.90;86.80;;;;;;5032864;28;20029;-89
2020/12/29 07:29:06;;;;;;;0.73;0.17;;;5.90;86.90;;;;;;5035280;28;20036;-92
2020/12/29 07:31:40;;;;;;;0.00;0.00;;;6.00;86.90;;;;;;5040349;28;20048;-90
2020/12/29 07:34:11;;;;;;;0.73;0.10;;;5.90;86.90;;;;;;5017140;28;20045;-90
2020/12/29 07:36:43;;;;;;;0.00;0.00;;;6.00;86.90;;;;;;5032823;28;20041;-89
2020/12/29 07:39:12;;;;;;;0.00;0.00;;;5.90;86.90;;;;;;5017951;28;20041;-88
2020/12/29 07:41:39;;;;;;;0.20;0.20;;;5.90;87.00;;;;;;5029438;28;20056;-89
2020/12/29 07:44:05;;;;;;;0.00;0.00;;;5.90;87.00;;;;;;5035366;28;20040;-90
2020/12/29 07:46:32;;;;;;;0.00;0.00;;;5.90;87.10;;;;;;4999393;28;20022;-90
2020/12/29 07:48:59;;;;;;;0.00;0.00;;;5.90;87.10;;;;;;5032192;28;20109;-88
2020/12/29 07:51:26;;;;;;;0.43;0.00;;;5.80;87.10;;;;;;5019466;28;20064;-89
2020/12/29 07:53:53;;;;;;;0.00;0.00;;;5.90;87.20;;;;;;5035454;28;20037;-89
2020/12/29 07:56:20;;;;;;;0.00;0.00;;;5.80;87.20;;;;;;5035755;28;20033;-87
2020/12/29 07:58:46;;;;;;;0.00;0.00;;;5.80;87.20;;;;;;5035418;28;20038;-89
2020/12/29 08:01:13;;;;;;;0.33;0.00;;;5.80;87.30;;;;;;5026313;28;20034;-88
2020/12/29 08:03:39;;;;;;;13.33;0.20;;;5.80;87.40;;;;;;5009586;28;20029;-88
2020/12/29 08:06:15;;;;;;;0.00;0.00;;;5.70;87.40;;;;;;5011554;28;20064;-88
2020/12/29 08:08:41;;;;;;;0.00;0.00;;;5.80;87.50;;;;;;5013668;28;20030;-87
2020/12/29 08:11:08;;;;;;;1.13;0.10;;;5.70;88.20;;;;;;4993582;28;20042;-88
2020/12/29 08:13:34;;;;;;;0.00;0.00;;;5.80;87.40;;;;;;5014501;28;20030;-88
2020/12/29 08:16:01;;;;;;;0.00;0.00;;;5.80;87.40;;;;;;5021903;28;20041;-86
2020/12/29 08:18:27;;;;;;;0.47;0.17;;;5.80;87.30;;;;;;5018586;28;20041;-89
2020/12/29 08:21:00;;;;;;;0.00;0.00;;;5.80;87.10;;;;;;5035326;28;20030;-87
2020/12/29 08:23:27;;;;;;;0.00;0.00;;;5.80;87.10;;;;;;5035748;28;20040;-88
2020/12/29 08:25:58;;;;;;;0.00;0.00;;;5.90;87.20;;;;;;5025847;28;20033;-87
2020/12/29 08:28:26;;;;;;;0.35;0.35;;;5.90;87.20;;;;;;5036703;28;20017;-88
2020/12/29 08:30:54;;;;;;;0.73;0.23;;;5.80;87.10;;;;;;5049110;28;20029;-89
2020/12/29 08:33:22;;;;;;;0.00;0.00;;;5.80;87.10;;;;;;5034668;28;20021;-88
2020/12/29 08:35:52;;;;;;;0.53;0.00;;;5.80;87.10;;;;;;5018158;28;20037;-89
2020/12/29 08:38:32;;;;;;;0.00;0.00;;;5.80;87.20;;;;;;5017370;28;20440;-86
2020/12/29 08:41:13;;;;;;;0.00;0.00;;;5.80;87.20;;;;;;5016238;28;20447;-87
2020/12/29 08:43:44;;;;;;;0.00;0.00;;;5.80;87.10;;;;;;5015780;28;20045;-88
2020/12/29 08:46:19;;;;;;;0.00;0.00;;;5.90;87.00;;;;;;5023672;28;20030;-88
2020/12/29 08:48:59;;;;;;;0.00;0.00;;;5.90;86.90;;;;;;4999207;28;20519;-87
2020/12/29 08:51:30;;;;;;;0.00;0.00;;;5.90;87.00;;;;;;5004384;28;20029;-89
2020/12/29 08:54:13;;;;;;;1.02;0.10;;;5.80;87.00;;;;;;5026078;28;20031;-93
2020/12/29 08:56:42;;;;;;;0.00;0.00;;;5.80;87.10;;;;;;4997469;28;20125;-92
2020/12/29 08:59:21;;;;;;;0.23;0.10;;;6.20;86.80;;;;;;4999391;28;20405;-89
2020/12/29 09:01:54;;;;;;;0.27;0.20;;;6.40;86.10;;;;;;5013433;28;20053;-91
2020/12/29 09:04:31;;;;;;;2.43;0.33;;;6.60;85.50;;;;;;4995487;28;20433;-91
2020/12/29 09:07:10;;;;;;;0.00;0.00;;;6.90;84.80;;;;;;5007342;28;20034;-91
2020/12/29 09:09:52;;;;;;;4.73;0.77;;;7.00;84.30;;;;;;4995160;28;20046;-90
2020/12/29 09:12:19;;;;;;;0.00;0.00;;;7.20;84.10;;;;;;5015269;28;20034;-90
2020/12/29 09:14:57;;;;;;;0.30;0.10;;;7.40;83.90;;;;;;5043952;28;20049;-93
2020/12/29 09:17:27;;;;;;;0.37;0.10;;;7.50;83.70;;;;;;5014753;28;20038;-92
2020/12/29 09:20:18;;;;;;;0.00;0.00;;;7.50;83.60;;;;;;5049948;28;20037;-92
2020/12/29 09:23:09;;;;;;;0.00;0.00;;;7.60;83.80;;;;;;5033889;28;20044;-90
2020/12/29 09:25:37;;;;;;;0.10;0.10;;;7.60;83.60;;;;;;5028042;28;20052;-92
2020/12/29 09:28:24;;;;;;;0.03;0.03;;;7.70;83.70;;;;;;5032115;28;20022;-90
2020/12/29 09:31:50;;;;;;;0.83;0.33;;;7.80;83.70;;;;;;5054154;28;20026;-95
2020/12/29 09:34:22;;;;;;;0.25;0.05;;;7.80;83.50;;;;;;5053572;28;20045;-90
2020/12/29 09:36:49;;;;;;;0.00;0.00;;;7.90;83.40;;;;;;5039461;28;20029;-94
2020/12/29 09:39:15;;;;;;;0.00;0.00;;;8.00;83.50;;;;;;5035626;28;20033;-89
2020/12/29 09:41:57;;;;;;;3.95;0.15;;;8.00;83.40;;;;;;5044956;28;20033;-88
2020/12/29 09:44:31;;;;;;;0.32;0.00;;;8.00;83.40;;;;;;5054480;28;20031;-92
2020/12/29 09:46:57;;;;;;;0.00;0.00;;;8.00;83.60;;;;;;5020799;28;20041;-92
2020/12/29 09:49:28;;;;;;;0.00;0.00;;;7.90;83.80;;;;;;5039280;28;20037;-87
2020/12/29 09:51:54;;;;;;;0.00;0.00;;;8.00;84.10;;;;;;5049174;28;20041;-92
2020/12/29 09:54:21;;;;;;;0.63;0.10;;;8.00;84.10;;;;;;5006157;28;20040;-88
2020/12/29 09:56:47;;;;;;;0.30;0.30;;;8.10;84.80;;;;;;5029438;28;20033;-90
2020/12/29 09:59:16;;;;;;;0.00;0.00;;;8.10;83.70;;;;;;5019135;28;20021;-93
2020/12/29 10:01:43;;;;;;;0.00;0.00;;;8.20;83.80;;;;;;4992694;28;20044;-95
2020/12/29 10:04:09;;;;;;;0.10;0.10;;;8.20;83.60;;;;;;5018542;28;20029;-94
2020/12/29 10:06:36;;;;;;;0.10;0.00;;;8.30;83.50;;;;;;5013442;28;20038;-94
2020/12/29 10:09:07;;;;;;;0.00;0.00;;;8.30;83.30;;;;;;5045952;28;20021;-92
2020/12/29 10:11:33;;;;;;;0.00;0.00;;;8.50;83.20;;;;;;5025206;28;20023;-89
2020/12/29 10:13:59;;;;;;;0.00;0.00;;;8.50;83.00;;;;;;5043324;28;20026;-91
2020/12/29 10:16:26;;;;;;;1.30;0.32;;;8.60;83.00;;;;;;5018911;28;20320;-93
2020/12/29 10:18:52;;;;;;;6.50;0.68;;;8.70;82.80;;;;;;5025951;28;20026;-93
2020/12/29 10:21:20;;;;;;;0.13;0.03;;;8.70;82.50;;;;;;5026912;28;20021;-88
2020/12/29 10:23:46;;;;;;;0.10;0.00;;;8.80;82.20;;;;;;5031927;28;20037;-90
2020/12/29 10:26:21;;;;;;;0.30;0.10;;;8.80;82.30;;;;;;5026930;28;20048;-88
2020/12/29 10:28:54;;;;;;;0.00;0.00;;;8.90;82.20;;;;;;5032549;28;20049;-87
2020/12/29 10:31:21;;;;;;;0.00;0.00;;;9.00;82.20;;;;;;5027245;28;20036;-89
2020/12/29 10:33:49;;;;;;;0.22;0.17;;;9.00;82.10;;;;;;5020167;28;20046;-91
2020/12/29 10:36:15;;;;;;;0.10;0.00;;;9.10;81.90;;;;;;5009089;28;20034;-88
2020/12/29 10:38:42;;;;;;;0.00;0.00;;;9.30;81.70;;;;;;5013280;28;20052;-90
2020/12/29 10:41:08;;;;;;;0.00;0.00;;;9.40;81.20;;;;;;5019714;28;20041;-94
2020/12/29 10:43:35;;;;;;;0.00;0.00;;;9.40;81.30;;;;;;5000642;28;20324;-91
2020/12/29 10:46:09;;;;;;;0.00;0.00;;;9.40;81.50;;;;;;5025965;28;20341;-88
2020/12/29 10:48:35;;;;;;;0.77;0.30;;;9.30;81.80;;;;;;5038390;28;20044;-86
2020/12/29 10:51:07;;;;;;;3.22;0.50;;;9.20;81.80;;;;;;5025056;28;20034;-86
2020/12/29 10:53:34;;;;;;;0.10;0.00;;;9.10;82.10;;;;;;5010879;28;20376;-89
2020/12/29 10:56:01;;;;;;;0.00;0.00;;;9.10;82.40;;;;;;5017486;28;20052;-94
2020/12/29 10:58:29;;;;;;;2.85;0.30;;;9.00;82.60;;;;;;5014357;28;20029;-91
2020/12/29 11:00:56;;;;;;;0.00;0.00;;;9.00;82.70;;;;;;5008219;28;20429;-91
2020/12/29 11:03:23;;;;;;;1.30;0.77;;;9.00;82.80;;;;;;5025567;28;20040;-94
2020/12/29 11:05:50;;;;;;;0.10;0.10;;;8.90;83.00;;;;;;4999623;28;20038;-91
2020/12/29 11:08:18;;;;;;;1.10;0.15;;;8.90;83.10;;;;;;5018470;28;20029;-94
2020/12/29 11:10:48;;;;;;;2.95;0.50;;;9.00;83.00;;;;;;5016297;28;20034;-86
2020/12/29 11:13:15;;;;;;;0.73;0.73;;;9.10;82.70;;;;;;5017542;28;20038;-88
2020/12/29 11:15:41;;;;;;;0.35;0.20;;;9.40;82.20;;;;;;5024551;28;20042;-93
2020/12/29 11:18:08;;;;;;;0.20;0.13;;;9.60;81.50;;;;;;5018612;28;20038;-87
2020/12/29 11:20:34;;;;;;;0.28;0.10;;;9.80;80.90;;;;;;5018598;28;20022;-90
2020/12/29 11:23:03;;;;;;;0.90;0.43;;;9.90;80.60;;;;;;5019316;28;20033;-92
2020/12/29 11:25:32;;;;;;;0.10;0.00;;;10.10;80.30;;;;;;5007184;28;20049;-88
2020/12/29 11:27:58;;;;;;;0.45;0.20;;;10.20;80.00;;;;;;5044849;28;20018;-90
2020/12/29 11:30:28;;;;;;;0.20;0.10;;;10.20;79.80;;;;;;5024488;28;20033;-91
2020/12/29 11:32:54;;;;;;;0.30;0.00;;;10.30;80.00;;;;;;5004020;28;20052;-88
2020/12/29 11:35:20;;;;;;;0.45;0.22;;;10.40;79.70;;;;;;5002352;28;20055;-87
2020/12/29 11:37:47;;;;;;;0.00;0.00;;;10.60;79.30;;;;;;5006632;28;20029;-89
2020/12/29 11:40:22;;;;;;;0.35;0.20;;;10.60;79.00;;;;;;5024466;28;20030;-87
2020/12/29 11:43:14;;;;;;;1.75;0.47;;;10.60;79.20;;;;;;5009980;28;20053;-92
2020/12/29 11:45:53;;;;;;;0.30;0.20;;;10.60;79.40;;;;;;5003142;28;20446;-93
2020/12/29 11:48:35;;;;;;;0.20;0.10;;;10.60;79.50;;;;;;5033371;28;20044;-89
2020/12/29 11:51:02;;;;;;;0.03;0.00;;;10.80;79.60;;;;;;5026146;28;20034;-90
2020/12/29 11:53:28;;;;;;;0.00;0.00;;;10.90;79.10;;;;;;5049466;28;20021;-87
2020/12/29 11:55:55;;;;;;;2.08;0.55;;;10.80;79.40;;;;;;5058508;28;20031;-87
2020/12/29 11:58:28;;;;;;;1.27;0.40;;;10.70;79.80;;;;;;5047177;28;20037;-87
2020/12/29 12:00:54;;;;;;;1.65;0.32;;;11.00;79.60;;;;;;5049130;28;20324;-86
2020/12/29 12:03:22;;;;;;;0.00;0.00;;;11.10;79.00;;;;;;5053964;28;20022;-87
2020/12/29 12:06:01;;;;;;;0.00;0.00;;;11.20;78.90;;;;;;5047785;28;20033;-87
2020/12/29 12:08:28;;;;;;;0.65;0.08;;;11.20;79.00;;;;;;5045382;28;20045;-88
2020/12/29 12:10:57;;;;;;;0.38;0.10;;;11.10;79.10;;;;;;5042145;28;20029;-91
2020/12/29 12:13:23;;;;;;;0.35;0.10;;;10.90;79.70;;;;;;5043905;28;20025;-83
2020/12/29 12:15:49;;;;;;;0.00;0.00;;;10.90;80.00;;;;;;5045333;28;20037;-89
2020/12/29 12:18:19;;;;;;;0.85;0.30;;;10.80;80.30;;;;;;5035389;28;20060;-89
2020/12/29 12:20:49;;;;;;;0.00;0.00;;;10.70;80.50;;;;;;5052956;28;20037;-86
2020/12/29 12:23:16;;;;;;;0.00;0.00;;;10.40;81.00;;;;;;5041857;28;20020;-87
2020/12/29 12:25:42;;;;;;;0.60;0.17;;;10.30;81.50;;;;;;5077532;28;20031;-87
2020/12/29 12:28:08;;;;;;;0.40;0.20;;;10.10;81.70;;;;;;5084180;28;20023;-88
2020/12/29 12:30:35;;;;;;;0.20;0.00;;;10.00;82.10;;;;;;5049519;28;20041;-90
2020/12/29 12:33:01;;;;;;;0.05;0.00;;;9.80;82.60;;;;;;5045715;28;20045;-88
2020/12/29 12:35:28;;;;;;;2.63;0.10;;;9.70;83.00;;;;;;5038926;28;20048;-89
2020/12/29 12:37:54;;;;;;;0.20;0.03;;;9.70;83.10;;;;;;5046189;28;20171;-87
2020/12/29 12:40:20;;;;;;;0.20;0.00;;;9.70;82.80;;;;;;5040269;28;20040;-85
2020/12/29 12:42:47;;;;;;;2.28;0.30;;;9.70;82.40;;;;;;5027096;28;20040;-88
2020/12/29 12:45:13;;;;;;;0.00;0.00;;;9.70;82.30;;;;;;5050720;28;20045;-88
2020/12/29 12:47:39;;;;;;;0.60;0.25;;;9.70;82.30;;;;;;5048740;28;20128;-90
2020/12/29 12:50:06;;;;;;;0.17;0.10;;;9.90;81.90;;;;;;5031151;28;20395;-87
2020/12/29 12:52:32;;;;;;;0.17;0.10;;;9.90;81.80;;;;;;5051396;28;20036;-87
2020/12/29 12:54:58;;;;;;;0.28;0.20;;;9.90;81.60;;;;;;5053709;28;20025;-88
2020/12/29 12:57:24;;;;;;;0.00;0.00;;;10.00;81.60;;;;;;5047347;28;20036;-85
2020/12/29 12:59:51;;;;;;;0.00;0.00;;;10.10;81.20;;;;;;5043845;28;20037;-87
2020/12/29 13:02:17;;;;;;;0.00;0.00;;;10.10;81.00;;;;;;5050031;28;20065;-86